Terminal Aerodrome Forecast
Issued by NWS

Home | Current Version | Previous Version | Text Only | Print | Product List | Glossary On
Versions: 1 2 3 4 5 6 7 8 9 10 11 12 13 14 15 16 17 18 19 20 21 22
000
FTUS43 KLSX 250800 AAD
TAFCPS
TAF AMD
KCPS 250851Z 2509/2606 00000KT 1SM BR SKC
      TEMPO 2509/2512 1/4SM FG VV005
     FM251300 19006KT P6SM SCT250
     FM252300 VRB04KT P6SM SCT250=

USA.gov is the U.S. government's official web portal to all federal, state and local government web resources and services.